グアテマラシティ の空港の天気 - METARとTAF

ラ・アウロラ国際空港 ( MGGT / GUA ) - グアテマラ グアテマラシティ
飛行場実況気象(Metar)
観測時間02/27 00:00 CST (02/27 06:00 UTC)
風向・風速北北東 6m/s
視程10km以上
天気現象
少しの雲 雲底高度 370m
気温16℃
湿度82%
気圧1025hPa
METARMGGT 270600Z 02012KT 9999 FEW012 16/13 Q1025 A3027
過去の天気等 Google飛行場航空写真 Wunderground天気予報

過去48時間のMETAR

飛行場予報(TAF)
発表時間: 2/26 17:25 CST (2/26 23:25 UTC)
予報対象時間: 26日18時 CST ~ 27日18時 CST
風向・風速北 5m/s
視程10km以上
全天の4割程度の雲 雲底高度 490m
27日9時 CST ~ 27日11時 CST に徐々に
風向・風速北北東 5m/s
視程8000m
全天の4割程度の雲 雲底高度 550m
27日14時 CST ~ 27日16時 CST に徐々に
全天の4割程度の雲 雲底高度 610m
全天の4割程度の雲 雲底高度 2740m
TAF MGGT 262325Z 2700/2724 36010KT 9999 SCT016 TX26/2720Z TN13/2712Z
BECMG 2715/2717 03010KT 8000 SCT018
BECMG 2720/2722 SCT020 SCT090